Thunder radar more information blitzortung!


Radar de pluja more information rain snow radar


Visita la nostra xarxa de llocs de meteo:

Template documentation
and downloads

And another site



No particular awareness of the weather is required.    There are no Weather-warnings

Pagina Historial Weather Underground text

Diari Resum Abril 8, 2016 Unitats:  Mètric    Imperial   Tant
« Previous Dia
SegĂźent Dia »
Diari Setmana Mensual Anual Personalitzada
  Maxima: Minima: Media:
Temperatura: -17.8 °C -13.9 °C -11.6 °C
Punt de rosada: -17.8 °C -17.9 °C -15.9 °C
Humitat: Humidity % 49 % 58 %
Wind Speed: 0 km/h 0 km/h 9.7 km/h
RĂ fegues de vent: 0 km/h - -
Vent:- - SSW
Pression baro: 0 hPa 34198.6 hPa -
Precipitacions: 0 mm    
Historical Graphs
 
 
Dades de taula per Abril 8, 2016
Temps Temperatura Punt de rosada Pression baro Vent Wind Speed RĂ fegues de vent Humitat Rainfall Rate (Hourly)
-17.8 °C -17.8 °C 0 hPa Calm     Humidity % 0 mm
00:02 -11.2 °C -14 °C 34256.2 hPa SSE 6 km/h 6 km/h 71 % 0 mm
00:05 -12.6 °C -17.2 °C 34256.2 hPa WSW 5.1 km/h 5.1 km/h 56 % 0 mm
00:07 -11.1 °C -13.8 °C 34293.4 hPa ESE 9 km/h 9 km/h 72 % 0 mm
00:15 -12.6 °C -17.4 °C 34256.2 hPa WSW 5.1 km/h 10.3 km/h 55 % 0 mm
00:25 -12.7 °C -17.4 °C 34256.2 hPa WSW 5.1 km/h 7.7 km/h 55 % 0 mm
00:35 -12.7 °C -17.5 °C 34256.2 hPa WSW 7.7 km/h 12.9 km/h 55 % 0 mm
00:45 -12.8 °C -17.7 °C 34222.3 hPa West 12.9 km/h 12.9 km/h 54 % 0 mm
00:55 -12.9 °C -17.8 °C 34256.2 hPa West 7.7 km/h 10.3 km/h 54 % 0 mm
01:05 -12.9 °C -17.8 °C 34256.2 hPa WSW 5.1 km/h 10.3 km/h 54 % 0 mm
01:15 -13 °C -17.9 °C 34256.2 hPa WSW 7.7 km/h 12.9 km/h 54 % 0 mm
01:25 -13 °C -17.7 °C 34256.2 hPa Calm   5.1 km/h 55 % 0 mm
01:35 -13.1 °C -17.8 °C 34256.2 hPa West 7.7 km/h 7.7 km/h 55 % 0 mm
01:45 -13.1 °C -17.8 °C 34256.2 hPa WSW 5.1 km/h 7.7 km/h 55 % 0 mm
01:55 -13.1 °C -17.8 °C 34256.2 hPa West 5.1 km/h 7.7 km/h 55 % 0 mm
02:05 -13.1 °C -17.7 °C 34256.2 hPa Calm   5.1 km/h 56 % 0 mm
02:15 -13.1 °C -17.7 °C 34256.2 hPa WNW 5.1 km/h 5.1 km/h 56 % 0 mm
02:25 -13.1 °C -17.7 °C 34256.2 hPa West 7.7 km/h 10.3 km/h 56 % 0 mm
02:45 -13.2 °C -17.8 °C 34256.2 hPa West 5.1 km/h 5.1 km/h 56 % 0 mm
02:55 -13.3 °C -17.6 °C 34256.2 hPa Calm   5.1 km/h 58 % 0 mm
03:05 -13.4 °C -17.4 °C 34256.2 hPa NNE 5.1 km/h 5.1 km/h 61 % 0 mm
03:15 -13.7 °C -17.2 °C 34256.2 hPa NE 2.6 km/h 2.6 km/h 64 % 0 mm
03:25 -13.8 °C -17.1 °C 34293.4 hPa Calm     66 % 0 mm
03:35 -13.8 °C -17 °C 34293.4 hPa Calm     67 % 0 mm
03:45 -13.8 °C -16.8 °C 34293.4 hPa Calm     68 % 0 mm
03:55 -13.7 °C -16.8 °C 34293.4 hPa Calm   2.6 km/h 68 % 0 mm
04:05 -13.6 °C -16.8 °C 34293.4 hPa South 2.6 km/h 2.6 km/h 67 % 0 mm
04:15 -13.6 °C -16.8 °C 34256.2 hPa ENE 2.6 km/h 5.1 km/h 67 % 0 mm
04:25 -13.5 °C -16.6 °C 34293.4 hPa ENE 2.6 km/h 7.7 km/h 68 % 0 mm
04:35 -13.4 °C -16.5 °C 34293.4 hPa SW 2.6 km/h 5.1 km/h 68 % 0 mm
04:55 -13.1 °C -16.2 °C 34293.4 hPa Calm   5.1 km/h 68 % 0 mm
05:05 -12.9 °C -16.2 °C 34293.4 hPa SW 2.6 km/h 5.1 km/h 67 % 0 mm
05:15 -12.8 °C -16.3 °C 34293.4 hPa SW 2.6 km/h 7.7 km/h 65 % 0 mm
05:25 -12.6 °C -16.2 °C 34293.4 hPa Calm   7.7 km/h 64 % 0 mm
05:35 -12.4 °C -16.2 °C 34293.4 hPa SW 2.6 km/h 7.7 km/h 63 % 0 mm
05:45 -12.4 °C -16.2 °C 34327.3 hPa Calm   10.3 km/h 62 % 0 mm
06:05 -12 °C -16 °C 34293.4 hPa NNE 2.6 km/h 12.9 km/h 61 % 0 mm
06:15 -11.9 °C -16 °C 34327.3 hPa WNW 2.6 km/h 7.7 km/h 60 % 0 mm
06:25 -12.1 °C -16.2 °C 34327.3 hPa WSW 5.1 km/h 7.7 km/h 60 % 0 mm
11:29 -11.9 °C -16.2 °C 34327.3 hPa ESE 6 km/h 6 km/h 59 % 0 mm
11:34 -11.7 °C -15.8 °C 34293.4 hPa ESE 6 km/h 6 km/h 60 % 0 mm
11:39 -11.3 °C -15.7 °C 34293.4 hPa ESE 8.5 km/h 8.5 km/h 59 % 0 mm
11:44 -11.4 °C -15.8 °C 34293.4 hPa SE 6 km/h 6.3 km/h 58 % 0 mm
11:49 -11.3 °C -15.7 °C 34293.4 hPa East 11.9 km/h 11.9 km/h 58 % 0 mm
11:54 -11.1 °C -15.7 °C 34293.4 hPa ESE 14 km/h 14 km/h 57 % 0 mm
11:59 -11.1 °C -15.7 °C 34293.4 hPa ENE 9 km/h 9 km/h 57 % 0 mm
12:04 -11.5 °C -16.2 °C 34293.4 hPa NE 23.8 km/h 23.8 km/h 56 % 0 mm
12:09 -11.4 °C -16.1 °C 34293.4 hPa ESE 6 km/h 6.3 km/h 56 % 0 mm
12:14 -11.2 °C -15.9 °C 34293.4 hPa ENE 3.7 km/h   56 % 0 mm
12:19 -11.1 °C -15.8 °C 34293.4 hPa SSE 9 km/h   56 % 0 mm
12:24 -11.1 °C -15.9 °C 34293.4 hPa ESE 11.9 km/h 11.9 km/h 55 % 0 mm
12:29 -11 °C -15.9 °C 34293.4 hPa South 14.5 km/h 14.5 km/h 55 % 0 mm
12:39 -10.7 °C -15.6 °C 34293.4 hPa ESE 15 km/h 15 km/h 55 % 0 mm
12:44 -10.4 °C -15.4 °C 34293.4 hPa SSE 19.2 km/h 19.2 km/h 55 % 0 mm
12:49 -10.6 °C -15.6 °C 34256.2 hPa NNE 11.9 km/h 11.9 km/h 54 % 0 mm
12:54 -10.6 °C -15.6 °C 34256.2 hPa ENE 20.9 km/h 20.9 km/h 54 % 0 mm
13:04 -10.4 °C -15.5 °C 34256.2 hPa ESE 15.6 km/h 15.6 km/h 54 % 0 mm
13:09 -10.2 °C -15.4 °C 34256.2 hPa South 16.6 km/h 16.6 km/h 53 % 0 mm
13:14 -9.9 °C -15.2 °C 34256.2 hPa SSW 6 km/h 6 km/h 53 % 0 mm
13:24 -9.4 °C -14.7 °C 34256.2 hPa East 6 km/h 6 km/h 53 % 0 mm
13:34 -10.1 °C -15.3 °C 34256.2 hPa ESE 15.6 km/h 15.6 km/h 53 % 0 mm
13:39 -10.1 °C -15.5 °C 34256.2 hPa NNE 11.9 km/h 11.9 km/h 52 % 0 mm
13:44 -10.2 °C -15.4 °C 34256.2 hPa East 17.9 km/h 17.9 km/h 53 % 0 mm
13:49 -10.1 °C -15.2 °C 34256.2 hPa ENE 20.9 km/h 20.9 km/h 54 % 0 mm
13:54 -10.1 °C -15.2 °C 34256.2 hPa East 15 km/h 15 km/h 54 % 0 mm
13:59 -9.9 °C -15.1 °C 34256.2 hPa WSW 15 km/h 15 km/h 54 % 0 mm
14:04 -9.8 °C -14.9 °C 34256.2 hPa SSE 15 km/h 15 km/h 54 % 0 mm
14:09 -9.8 °C -14.8 °C 34256.2 hPa SE 15 km/h 15 km/h 55 % 0 mm
14:14 -9.6 °C -14.7 °C 34256.2 hPa SSW 17.9 km/h 17.9 km/h 54 % 0 mm
14:24 -9.5 °C -14.9 °C 34256.2 hPa South 11.9 km/h 11.9 km/h 52 % 0 mm
14:29 -9.7 °C -15.2 °C 34256.2 hPa SW 9 km/h 12.2 km/h 51 % 0 mm
14:34 -9.5 °C -15.1 °C 34256.2 hPa SSW 11.9 km/h 11.9 km/h 51 % 0 mm
14:39 -9.1 °C -14.9 °C 34256.2 hPa SSW 17.9 km/h 17.9 km/h 50 % 0 mm
14:44 -9.2 °C -14.9 °C 34256.2 hPa SW 20.9 km/h 20.9 km/h 50 % 0 mm
14:49 -8.9 °C -14.7 °C 34256.2 hPa West 17.9 km/h 17.9 km/h 50 % 0 mm
14:54 -8.9 °C -14.7 °C 34256.2 hPa SE 22.5 km/h 22.5 km/h 50 % 0 mm
14:59 -9 °C -14.9 °C 34256.2 hPa SW 17.9 km/h 17.9 km/h 49 % 0 mm
15:04 -9.2 °C -15.2 °C 34222.3 hPa SW 15 km/h 15 km/h 49 % 0 mm
15:09 -9.4 °C -15.3 °C 34222.3 hPa SW 15 km/h 15 km/h 49 % 0 mm
15:14 -9.7 °C -15.4 °C 34222.3 hPa SSW 20.9 km/h 20.9 km/h 50 % 0 mm
15:19 -9.8 °C -15.7 °C 34222.3 hPa SW 20.9 km/h 20.9 km/h 49 % 0 mm
15:24 -10.1 °C -15.9 °C 34222.3 hPa SSW 26.9 km/h 26.9 km/h 49 % 0 mm
15:29 -10.2 °C -15.9 °C 34222.3 hPa SW 23.8 km/h 23.8 km/h 50 % 0 mm
15:34 -10.1 °C -15.8 °C 34198.6 hPa SW 11.9 km/h 11.9 km/h 50 % 0 mm
15:39 -10.1 °C -15.8 °C 34198.6 hPa SSW 23.8 km/h 23.8 km/h 50 % 0 mm
15:44 -9.8 °C -15.6 °C 34198.6 hPa SSW 23.8 km/h 23.8 km/h 50 % 0 mm
15:49 -10 °C -15.7 °C 34222.3 hPa SW 25.4 km/h 25.4 km/h 50 % 0 mm
15:54 -10.4 °C -16.1 °C 34222.3 hPa SSW 17.9 km/h 18.3 km/h 50 % 0 mm
15:59 -10.5 °C -16 °C 34222.3 hPa South 15.3 km/h 15.3 km/h 51 % 0 mm
16:04 -10.6 °C -16.1 °C 34198.6 hPa West 26.9 km/h 26.9 km/h 51 % 0 mm
16:09 -10.5 °C -16 °C 34198.6 hPa SW 14.5 km/h 14.5 km/h 51 % 0 mm
16:14 -10.1 °C -15.6 °C 34198.6 hPa WSW 26.9 km/h 26.9 km/h 51 % 0 mm
16:19 -10.1 °C -15.7 °C 34198.6 hPa WSW 26.9 km/h 26.9 km/h 51 % 0 mm
16:24 -10.3 °C -15.8 °C 34198.6 hPa West 15 km/h 19.2 km/h 51 % 0 mm
16:29 -10.3 °C -15.9 °C 34198.6 hPa South 3.7 km/h 5.6 km/h 51 % 0 mm
16:34 -10.5 °C -16 °C 34198.6 hPa SSW 15 km/h 15.3 km/h 51 % 0 mm
16:39 -10.6 °C -16.1 °C 34198.6 hPa WSW 9.8 km/h 9.8 km/h 51 % 0 mm
16:44 -10.6 °C -16.1 °C 34198.6 hPa SSW 20.9 km/h 20.9 km/h 51 % 0 mm
16:49 -10.7 °C -16 °C 34222.3 hPa WSW 15 km/h 15 km/h 52 % 0 mm
16:54 -10.6 °C -15.9 °C 34222.3 hPa WSW 3.7 km/h 9.3 km/h 52 % 0 mm
16:59 -10.6 °C -15.9 °C 34222.3 hPa SSE 6.3 km/h 6.3 km/h 52 % 0 mm
17:04 -10.6 °C -15.9 °C 34222.3 hPa SSE 6.3 km/h 6.3 km/h 52 % 0 mm
17:09 -10.6 °C -15.9 °C 34222.3 hPa SSW 8 km/h 8 km/h 52 % 0 mm
17:14 -10.2 °C -15.6 °C 34222.3 hPa WSW 19.2 km/h 19.2 km/h 52 % 0 mm
17:19 -9.9 °C -15.3 °C 34198.6 hPa SW 11.9 km/h 11.9 km/h 52 % 0 mm
17:25 -9.8 °C -15.2 °C 34198.6 hPa WSW 15 km/h 15 km/h 52 % 0 mm
17:30 -9.7 °C -15.1 °C 34198.6 hPa SSW 14.5 km/h 14.5 km/h 52 % 0 mm
17:35 -9.9 °C -15.3 °C 34198.6 hPa SW 20.9 km/h 20.9 km/h 52 % 0 mm
17:40 -9.9 °C -15.5 °C 34198.6 hPa West 17.9 km/h 17.9 km/h 51 % 0 mm
17:45 -9.9 °C -15.3 °C 34198.6 hPa SW 11.1 km/h 11.1 km/h 52 % 0 mm
17:50 -10.2 °C -15.7 °C 34222.3 hPa SW 15.3 km/h 15.3 km/h 51 % 0 mm
18:00 -10.5 °C -15.9 °C 34222.3 hPa SW 15.6 km/h 15.6 km/h 52 % 0 mm
18:05 -10.6 °C -15.8 °C 34222.3 hPa SW 15.6 km/h 15.6 km/h 53 % 0 mm
18:10 -10.8 °C -15.9 °C 34222.3 hPa SW 15.6 km/h 15.6 km/h 53 % 0 mm
18:25 -10.7 °C -15.8 °C 34222.3 hPa SSW 11.9 km/h 11.9 km/h 54 % 0 mm
18:30 -10.8 °C -15.8 °C 34222.3 hPa ESE 4.2 km/h 11.1 km/h 54 % 0 mm
18:35 -10.8 °C -15.9 °C 34222.3 hPa ESE 4.2 km/h 11.1 km/h 54 % 0 mm
18:40 -10.9 °C -15.9 °C 34222.3 hPa ESE 4.2 km/h 11.1 km/h 54 % 0 mm
18:45 -10.8 °C -15.7 °C 34222.3 hPa West 9.8 km/h 9.8 km/h 55 % 0 mm
18:50 -10.8 °C -15.7 °C 34256.2 hPa West 9.8 km/h 9.8 km/h 55 % 0 mm
18:55 -10.8 °C -15.5 °C 34256.2 hPa WSW 11.9 km/h 11.9 km/h 56 % 0 mm
19:05 -10.7 °C -15.4 °C 34256.2 hPa SW 6.8 km/h 14 km/h 56 % 0 mm
19:10 -10.8 °C -15.4 °C 34256.2 hPa SW 11.9 km/h 11.9 km/h 57 % 0 mm
19:20 -10.8 °C -15.4 °C 34256.2 hPa WSW 7.7 km/h 7.7 km/h 57 % 0 mm
19:25 -10.9 °C -15.4 °C 34256.2 hPa WSW 7.7 km/h 10.3 km/h 58 % 0 mm
19:30 -11.1 °C -15.5 °C 34256.2 hPa WSW 9.3 km/h 9.8 km/h 58 % 0 mm
19:35 -11.2 °C -15.5 °C 34256.2 hPa SW 12.9 km/h 15.6 km/h 59 % 0 mm
19:40 -11.3 °C -15.6 °C 34256.2 hPa SW 12.9 km/h 15.6 km/h 59 % 0 mm
19:45 -11.3 °C -15.7 °C 34256.2 hPa SW 5.1 km/h 15.6 km/h 59 % 0 mm
19:50 -11.5 °C -15.7 °C 34256.2 hPa West 6.8 km/h 6.8 km/h 60 % 0 mm
19:55 -11.6 °C -15.6 °C 34256.2 hPa West 5.1 km/h 7.7 km/h 61 % 0 mm
20:05 -11.8 °C -15.7 °C 34256.2 hPa West 5.1 km/h 7.7 km/h 62 % 0 mm
20:10 -11.8 °C -15.7 °C 34256.2 hPa West 6.8 km/h 6.8 km/h 62 % 0 mm
20:15 -11.9 °C -15.8 °C 34256.2 hPa West 5.1 km/h 7.7 km/h 62 % 0 mm
20:20 -12 °C -15.9 °C 34256.2 hPa West 6.8 km/h 6.8 km/h 62 % 0 mm
20:25 -12.1 °C -15.9 °C 34256.2 hPa West 5.1 km/h 7.7 km/h 62 % 0 mm
20:30 -12.1 °C -15.9 °C 34256.2 hPa West 5.1 km/h 7.7 km/h 63 % 0 mm
20:35 -12.2 °C -15.9 °C 34256.2 hPa West 5.1 km/h 7.7 km/h 63 % 0 mm
20:40 -12.2 °C -15.9 °C 34256.2 hPa West 5.1 km/h 7.7 km/h 63 % 0 mm
20:45 -12.2 °C -15.8 °C 34256.2 hPa West 5.1 km/h 7.7 km/h 64 % 0 mm
20:50 -12.3 °C -15.8 °C 34256.2 hPa West 5.1 km/h 7.7 km/h 65 % 0 mm
20:55 -12.3 °C -15.8 °C 34256.2 hPa West 5.1 km/h 7.7 km/h 65 % 0 mm
21:00 -12.4 °C -15.9 °C 34256.2 hPa West 7.7 km/h 7.7 km/h 65 % 0 mm
21:05 -12.4 °C -15.9 °C 34256.2 hPa WSW 7.7 km/h 7.7 km/h 65 % 0 mm
21:10 -12.4 °C -15.9 °C 34256.2 hPa SW 7.7 km/h 7.7 km/h 65 % 0 mm
21:15 -12.4 °C -15.8 °C 34256.2 hPa SW 7.7 km/h 7.7 km/h 66 % 0 mm
21:20 -12.4 °C -15.8 °C 34256.2 hPa SW 7.7 km/h 7.7 km/h 66 % 0 mm
21:25 -12.5 °C -15.9 °C 34256.2 hPa SW 7.7 km/h 7.7 km/h 66 % 0 mm
21:30 -12.6 °C -15.9 °C 34256.2 hPa SW 6.8 km/h 9.3 km/h 66 % 0 mm
21:35 -12.6 °C -15.8 °C 34256.2 hPa SW 6.8 km/h 9.3 km/h 67 % 0 mm
21:40 -12.6 °C -15.7 °C 34256.2 hPa SW 6.8 km/h 9.3 km/h 68 % 0 mm
21:45 -12.7 °C -15.8 °C 34256.2 hPa SW 6.8 km/h 9.3 km/h 68 % 0 mm
21:50 -12.7 °C -15.8 °C 34256.2 hPa SW 6.8 km/h 9.3 km/h 68 % 0 mm
21:55 -12.7 °C -15.7 °C 34256.2 hPa SW 6.8 km/h 9.3 km/h 69 % 0 mm
22:00 -12.8 °C -15.8 °C 34256.2 hPa SW 6.8 km/h 9.3 km/h 69 % 0 mm
22:05 -12.8 °C -15.8 °C 34256.2 hPa SW 6.8 km/h 9.3 km/h 69 % 0 mm
22:10 -12.8 °C -15.8 °C 34256.2 hPa SW 6.8 km/h 9.3 km/h 69 % 0 mm
22:15 -12.8 °C -15.8 °C 34256.2 hPa SW 6.8 km/h 9.3 km/h 69 % 0 mm
22:20 -12.9 °C -15.9 °C 34293.4 hPa SW 6.8 km/h 9.3 km/h 69 % 0 mm
22:25 -12.9 °C -15.9 °C 34293.4 hPa SW 6.8 km/h 9.3 km/h 69 % 0 mm
22:30 -12.9 °C -15.9 °C 34293.4 hPa SW 6.8 km/h 9.3 km/h 69 % 0 mm
22:35 -12.9 °C -15.9 °C 34256.2 hPa SW 7.7 km/h 7.7 km/h 69 % 0 mm
22:40 -12.9 °C -15.9 °C 34256.2 hPa SW 6.8 km/h 9.3 km/h 69 % 0 mm
22:45 -12.9 °C -15.9 °C 34256.2 hPa SW 7.7 km/h 7.7 km/h 69 % 0 mm
22:50 -12.9 °C -15.8 °C 34256.2 hPa SW 6.8 km/h 9.3 km/h 70 % 0 mm
22:55 -12.9 °C -15.7 °C 34256.2 hPa SW 7.7 km/h 7.7 km/h 71 % 0 mm
23:00 -13 °C -15.8 °C 34256.2 hPa SW 7.7 km/h 7.7 km/h 71 % 0 mm
23:05 -13 °C -15.7 °C 34256.2 hPa SW 7.7 km/h 12.9 km/h 72 % 0 mm
23:10 -13 °C -15.7 °C 34256.2 hPa WSW 12.9 km/h 12.9 km/h 72 % 0 mm
23:15 -13 °C -15.7 °C 34256.2 hPa WSW 7.7 km/h 15.6 km/h 72 % 0 mm
23:20 -13.1 °C -15.7 °C 34256.2 hPa WSW 5.1 km/h 7.7 km/h 72 % 0 mm
23:25 -13.9 °C -17.7 °C 34222.3 hPa WSW 7.7 km/h 10.3 km/h 62 % 0 mm
23:30 -13.1 °C -15.8 °C 34256.2 hPa West 9 km/h 9 km/h 71 % 0 mm
23:35 -13.1 °C -15.7 °C 34256.2 hPa West 2.6 km/h 7.7 km/h 72 % 0 mm
23:40 -13.1 °C -15.9 °C 34256.2 hPa WNW 2.6 km/h 5.1 km/h 71 % 0 mm
23:45 -13.1 °C -15.9 °C 34256.2 hPa West 2.6 km/h 5.1 km/h 71 % 0 mm
23:50 -13.2 °C -15.9 °C 34256.2 hPa West 5.1 km/h 5.1 km/h 71 % 0 mm
23:55 -13.2 °C -15.8 °C 34256.2 hPa West 2.6 km/h 5.1 km/h 72 % 0 mm
Meteo Sesrovires
Elogis d' Weather Underground - 2 mb

Guio original per  Jim McMurry - jmcmurry@mwt.net Adaptat per a la plantilla per  Wim van der Kuil - Leuven-Template.eu

Trobareu la nostra informacio del temps tambe a:

Weather Underground

AWEKAS